Time;durP1;ratioP1;P1;durP2;ratioP2;P2;SDS_P1;SDS_P2;PMS_P1;PMS_P2;Temp;Humidity;BMP_temperature;BMP_pressure;BME280_temperature;BME280_humidity;BME280_pressure;Samples;Min_cycle;Max_cycle;Signal;HPM_P1;HPM_P2
2021/06/16 00:00:10;;;;;;;9.32;5.60;;;20.20;99.90;;;;;;3519841;40;19979;-78
2021/06/16 00:02:41;;;;;;;9.88;6.30;;;20.20;99.90;;;;;;3519731;40;20080;-78
2021/06/16 00:05:10;;;;;;;;;;;20.20;99.90;;;;;;3519638;40;20443;-78
2021/06/16 00:07:38;;;;;;;12.32;5.93;;;20.20;99.90;;;;;;3518896;40;19939;-78
2021/06/16 00:10:07;;;;;;;10.20;6.88;;;20.20;99.90;;;;;;3520326;40;20091;-81
2021/06/16 00:12:35;;;;;;;12.52;7.15;;;20.20;99.90;;;;;;3515111;40;20085;-79
2021/06/16 00:15:07;;;;;;;12.15;6.50;;;20.20;99.90;;;;;;3504087;40;20071;-81
2021/06/16 00:17:35;;;;;;;11.77;7.18;;;20.20;99.90;;;;;;3520257;40;20066;-80
2021/06/16 00:20:04;;;;;;;8.50;6.47;;;20.20;99.90;;;;;;3519171;40;20069;-79
2021/06/16 00:22:31;;;;;;;11.73;7.00;;;20.10;99.90;;;;;;3522819;40;20104;-78
2021/06/16 00:25:01;;;;;;;13.75;6.65;;;20.00;99.90;;;;;;3521544;40;20088;-79
2021/06/16 00:27:29;;;;;;;11.48;6.55;;;20.00;99.90;;;;;;3519769;40;20091;-79
2021/06/16 00:29:59;;;;;;;8.75;6.32;;;20.00;99.90;;;;;;3518257;40;20087;-78
2021/06/16 00:32:28;;;;;;;9.13;6.28;;;20.00;99.90;;;;;;3520907;40;20067;-78
2021/06/16 00:35:06;;;;;;;9.88;6.28;;;20.00;99.90;;;;;;3495925;41;20083;-78
2021/06/16 00:37:36;;;;;;;11.30;6.25;;;20.00;99.90;;;;;;3521927;40;20091;-78
2021/06/16 00:40:09;;;;;;;12.05;6.30;;;20.00;99.90;;;;;;3523529;40;20076;-78
2021/06/16 00:42:37;;;;;;;11.65;6.30;;;20.00;99.90;;;;;;3519675;40;20091;-78
2021/06/16 00:45:09;;;;;;;9.90;6.53;;;20.00;99.90;;;;;;3519646;40;20084;-79
2021/06/16 00:47:41;;;;;;;17.50;7.93;;;20.00;99.90;;;;;;3505609;40;20083;-78
2021/06/16 00:50:11;;;;;;;12.98;7.35;;;20.00;99.90;;;;;;3519138;40;20099;-78
2021/06/16 00:52:39;;;;;;;14.65;8.98;;;20.00;99.90;;;;;;3517810;40;20080;-80
2021/06/16 00:55:08;;;;;;;13.20;8.25;;;20.00;99.90;;;;;;3520704;40;20440;-78
2021/06/16 00:57:36;;;;;;;;;;;20.00;99.90;;;;;;3520530;40;20079;-79
2021/06/16 01:00:08;;;;;;;12.48;7.68;;;20.00;99.90;;;;;;3517977;40;19953;-82
2021/06/16 01:02:44;;;;;;;14.90;7.65;;;20.00;99.90;;;;;;3520123;40;20058;-79
2021/06/16 01:05:16;;;;;;;9.75;6.50;;;19.90;99.90;;;;;;3520145;40;20344;-81
2021/06/16 01:07:45;;;;;;;10.52;6.82;;;19.90;99.90;;;;;;3502274;40;20079;-78
2021/06/16 01:10:17;;;;;;;14.35;7.13;;;19.80;99.90;;;;;;3509064;40;20304;-78
2021/06/16 01:13:00;;;;;;;10.68;6.72;;;19.80;99.90;;;;;;3506191;40;20073;-78
2021/06/16 01:15:36;;;;;;;11.07;6.97;;;19.70;99.90;;;;;;3515933;40;20095;-80
2021/06/16 01:18:08;;;;;;;11.52;6.45;;;19.70;99.90;;;;;;3516397;40;20042;-79
2021/06/16 01:20:39;;;;;;;11.30;6.75;;;19.60;99.90;;;;;;3517697;40;20055;-79
2021/06/16 01:23:35;;;;;;;9.60;6.25;;;19.60;99.90;;;;;;3517951;40;20411;-79
2021/06/16 01:26:22;;;;;;;9.27;6.70;;;19.50;99.90;;;;;;3515810;40;20038;-78
2021/06/16 01:28:56;;;;;;;10.43;6.72;;;19.40;99.90;;;;;;3516462;40;20075;-78
2021/06/16 01:31:27;;;;;;;10.40;6.78;;;19.40;99.90;;;;;;3521162;40;20396;-79
2021/06/16 01:33:55;;;;;;;9.55;6.68;;;19.40;99.90;;;;;;3516856;40;20079;-79
2021/06/16 01:36:29;;;;;;;10.57;6.80;;;19.40;99.90;;;;;;3529879;40;20034;-79
2021/06/16 01:39:00;;;;;;;12.43;7.22;;;19.40;99.90;;;;;;3524879;40;20388;-80
2021/06/16 01:41:32;;;;;;;9.60;6.80;;;19.30;99.90;;;;;;3526375;40;20076;-78
2021/06/16 01:44:01;;;;;;;11.20;6.88;;;19.30;99.90;;;;;;3528639;40;20099;-78
2021/06/16 01:46:32;;;;;;;10.68;6.78;;;19.20;99.90;;;;;;3518621;40;20080;-77
2021/06/16 01:49:00;;;;;;;13.32;7.57;;;19.20;99.90;;;;;;3521983;40;20392;-78
2021/06/16 01:51:29;;;;;;;11.77;7.32;;;19.20;99.90;;;;;;3520101;40;20071;-78
2021/06/16 01:53:57;;;;;;;12.30;8.32;;;19.20;99.90;;;;;;3515626;40;20092;-79
2021/06/16 01:56:27;;;;;;;11.38;7.95;;;19.20;99.90;;;;;;3519484;40;20043;-78
2021/06/16 01:58:57;;;;;;;11.60;7.68;;;19.20;99.90;;;;;;3520897;40;20443;-80
2021/06/16 02:01:25;;;;;;;9.93;7.70;;;19.20;99.90;;;;;;3517416;40;21471;-78
2021/06/16 02:03:54;;;;;;;15.80;8.43;;;19.20;99.90;;;;;;3521485;40;20068;-78
2021/06/16 02:06:27;;;;;;;14.20;8.68;;;19.20;99.90;;;;;;3519463;40;20276;-79
2021/06/16 02:08:56;;;;;;;14.48;8.18;;;19.10;99.90;;;;;;3520586;40;20075;-80
2021/06/16 02:11:24;;;;;;;;;;;19.10;99.90;;;;;;3521717;40;20080;-79
2021/06/16 02:13:58;;;;;;;10.95;7.65;;;19.10;99.90;;;;;;3519714;40;19987;-83
2021/06/16 02:16:30;;;;;;;16.38;8.25;;;19.10;99.90;;;;;;3511022;41;20392;-79
2021/06/16 02:19:06;;;;;;;13.70;8.82;;;19.00;99.90;;;;;;3520575;40;20115;-79
2021/06/16 02:21:40;;;;;;;11.65;7.82;;;19.00;99.90;;;;;;3521230;40;20111;-78
2021/06/16 02:24:13;;;;;;;11.45;8.40;;;18.90;99.90;;;;;;3521191;40;20071;-78
2021/06/16 02:26:42;;;;;;;12.35;7.90;;;18.90;99.90;;;;;;3520288;40;20058;-78
2021/06/16 02:29:12;;;;;;;12.18;8.10;;;18.90;99.90;;;;;;3511489;40;20048;-78
2021/06/16 02:31:41;;;;;;;12.27;8.45;;;18.80;99.90;;;;;;3521094;40;20091;-78
2021/06/16 02:34:08;;;;;;;;;;;18.80;99.90;;;;;;3512267;40;20100;-78
2021/06/16 02:36:40;;;;;;;13.70;9.10;;;18.70;99.90;;;;;;3520012;40;19974;-78
2021/06/16 02:39:13;;;;;;;16.33;10.77;;;18.80;99.90;;;;;;3521396;40;20084;-79
2021/06/16 02:41:43;;;;;;;17.67;9.45;;;18.70;99.90;;;;;;3511458;40;20076;-78
2021/06/16 02:44:15;;;;;;;19.27;10.02;;;18.70;99.90;;;;;;3520486;40;20095;-79
2021/06/16 02:46:48;;;;;;;14.13;9.43;;;18.70;99.90;;;;;;3513504;40;20109;-79
2021/06/16 02:49:19;;;;;;;18.50;10.07;;;18.70;99.90;;;;;;3530403;40;20079;-77
2021/06/16 02:51:46;;;;;;;14.93;9.90;;;18.70;99.90;;;;;;3521917;40;20106;-78
2021/06/16 02:54:20;;;;;;;18.48;10.77;;;18.70;99.90;;;;;;3521107;40;20071;-78
2021/06/16 02:56:48;;;;;;;17.02;10.63;;;18.70;99.90;;;;;;3512977;40;20079;-78
2021/06/16 02:59:19;;;;;;;17.63;10.43;;;18.70;99.90;;;;;;3520946;40;20055;-78
2021/06/16 03:01:49;;;;;;;23.77;14.30;;;18.60;99.90;;;;;;3522345;40;20093;-78
2021/06/16 03:04:20;;;;;;;19.08;11.38;;;18.60;99.90;;;;;;3521475;40;20095;-82
2021/06/16 03:06:49;;;;;;;17.08;10.10;;;18.60;99.90;;;;;;3513329;40;20087;-77
2021/06/16 03:09:19;;;;;;;18.67;11.23;;;18.60;99.90;;;;;;3525443;40;20408;-79
2021/06/16 03:11:48;;;;;;;17.73;10.98;;;18.60;99.90;;;;;;3525943;40;20094;-78
2021/06/16 03:14:20;;;;;;;17.83;10.80;;;18.60;99.90;;;;;;3533802;40;20083;-79
2021/06/16 03:16:53;;;;;;;14.65;10.52;;;18.60;99.90;;;;;;3523697;40;20071;-78
2021/06/16 03:19:22;;;;;;;15.52;11.38;;;18.60;99.90;;;;;;3523156;40;20083;-77
2021/06/16 03:21:53;;;;;;;16.35;11.25;;;18.60;99.90;;;;;;3525025;40;20071;-77
2021/06/16 03:24:23;;;;;;;18.60;13.68;;;18.60;99.90;;;;;;3522631;40;20071;-78
2021/06/16 03:26:54;;;;;;;18.08;13.10;;;18.50;99.90;;;;;;3515818;40;20079;-79
2021/06/16 03:29:26;;;;;;;21.48;12.40;;;18.50;99.90;;;;;;3507138;40;20064;-78
2021/06/16 03:31:57;;;;;;;21.58;11.95;;;18.60;99.90;;;;;;3522249;40;20094;-79
2021/06/16 03:34:25;;;;;;;20.27;11.60;;;18.60;99.90;;;;;;3533183;40;20087;-78
2021/06/16 03:36:54;;;;;;;17.88;12.23;;;18.60;99.90;;;;;;3515077;40;20123;-79
2021/06/16 03:39:23;;;;;;;17.77;11.80;;;18.60;99.90;;;;;;3519620;40;20067;-77
2021/06/16 03:41:52;;;;;;;19.15;11.85;;;18.60;99.90;;;;;;3531223;40;20091;-81
2021/06/16 03:44:24;;;;;;;18.55;12.48;;;18.60;99.90;;;;;;3523371;40;20667;-78
2021/06/16 03:46:54;;;;;;;20.70;11.75;;;18.60;99.90;;;;;;3530197;40;20165;-79
2021/06/16 03:49:23;;;;;;;23.23;12.38;;;18.70;99.90;;;;;;3514497;40;20122;-78
2021/06/16 03:51:51;;;;;;;19.13;11.77;;;18.60;99.90;;;;;;3522235;40;20064;-78
2021/06/16 03:54:20;;;;;;;20.23;12.60;;;18.60;99.90;;;;;;3530665;40;20087;-79
2021/06/16 03:56:49;;;;;;;20.25;12.40;;;18.60;99.90;;;;;;3522119;40;20072;-78
2021/06/16 03:59:16;;;;;;;;;;;18.60;99.90;;;;;;3530351;40;20530;-79
2021/06/16 04:01:45;;;;;;;18.70;12.02;;;18.70;99.90;;;;;;3521905;40;19992;-77
2021/06/16 04:04:14;;;;;;;;;;;18.70;99.90;;;;;;3513930;40;20082;-78
2021/06/16 04:06:44;;;;;;;17.60;11.07;;;18.80;99.90;;;;;;3512593;40;20039;-78
2021/06/16 04:09:15;;;;;;;24.75;12.20;;;18.80;99.90;;;;;;3529946;40;20079;-78
2021/06/16 04:11:44;;;;;;;19.85;11.75;;;18.80;99.90;;;;;;3521988;40;20091;-76
2021/06/16 04:14:11;;;;;;;20.80;12.57;;;18.90;99.90;;;;;;3530530;40;20094;-79
2021/06/16 04:16:42;;;;;;;24.67;13.23;;;19.00;99.90;;;;;;3513872;40;20075;-79
2021/06/16 04:19:09;;;;;;;19.13;12.02;;;19.10;99.90;;;;;;3521761;40;20067;-79
2021/06/16 04:21:41;;;;;;;22.27;12.57;;;19.10;99.90;;;;;;3521347;40;20064;-79
2021/06/16 04:24:09;;;;;;;23.88;13.65;;;19.20;99.90;;;;;;3521750;40;20450;-77
2021/06/16 04:26:36;;;;;;;19.65;12.75;;;19.30;99.90;;;;;;3512517;40;20143;-77
2021/06/16 04:29:04;;;;;;;24.67;12.73;;;19.40;99.90;;;;;;3521034;40;20261;-78
2021/06/16 04:31:36;;;;;;;22.65;12.13;;;19.40;99.90;;;;;;3529763;40;20087;-78
2021/06/16 04:34:05;;;;;;;19.63;12.80;;;19.50;99.90;;;;;;3522687;40;20071;-78
2021/06/16 04:36:33;;;;;;;18.52;12.30;;;19.50;99.90;;;;;;3510666;40;20411;-79
2021/06/16 04:39:02;;;;;;;19.05;12.07;;;19.60;99.90;;;;;;3520365;40;20104;-77
2021/06/16 04:41:29;;;;;;;22.15;13.70;;;19.60;99.90;;;;;;3535159;40;20308;-81
2021/06/16 04:43:59;;;;;;;21.92;13.10;;;19.60;99.90;;;;;;3515379;40;20067;-78
2021/06/16 04:46:28;;;;;;;19.02;12.88;;;19.80;99.90;;;;;;3520244;40;20091;-78
2021/06/16 04:48:55;;;;;;;22.73;12.30;;;19.80;99.90;;;;;;3529629;40;20074;-81
2021/06/16 04:51:23;;;;;;;20.02;13.23;;;19.90;99.90;;;;;;3513187;40;20067;-79
2021/06/16 04:53:51;;;;;;;23.45;13.10;;;19.90;99.90;;;;;;3514973;40;20133;-80
2021/06/16 04:56:23;;;;;;;24.65;12.63;;;20.00;99.90;;;;;;3521736;40;20110;-78
2021/06/16 04:58:53;;;;;;;17.67;12.10;;;20.10;99.90;;;;;;3530867;40;20071;-80
2021/06/16 05:01:21;;;;;;;18.67;12.90;;;20.10;99.90;;;;;;3513723;40;20090;-80
2021/06/16 05:03:48;;;;;;;21.65;12.48;;;20.20;99.90;;;;;;3520823;40;20376;-78
2021/06/16 05:06:16;;;;;;;22.75;12.55;;;20.30;99.90;;;;;;3517136;40;20037;-78
2021/06/16 05:08:45;;;;;;;20.03;13.10;;;20.30;99.90;;;;;;3530770;40;20094;-77
2021/06/16 05:11:12;;;;;;;19.73;13.05;;;20.40;99.90;;;;;;3529816;40;20072;-78
2021/06/16 05:13:43;;;;;;;26.50;12.73;;;20.40;99.90;;;;;;3514034;40;20095;-79
2021/06/16 05:16:14;;;;;;;22.25;13.10;;;20.50;99.90;;;;;;3521686;40;20095;-78
2021/06/16 05:18:44;;;;;;;19.85;12.80;;;20.70;99.90;;;;;;3515045;40;20439;-78
2021/06/16 05:21:16;;;;;;;26.67;12.30;;;20.80;99.90;;;;;;3517320;40;20062;-82
2021/06/16 05:23:44;;;;;;;26.55;12.80;;;20.90;99.90;;;;;;3506485;40;20379;-81
2021/06/16 05:26:15;;;;;;;19.15;12.00;;;21.10;99.90;;;;;;3521561;40;20503;-80
2021/06/16 05:28:49;;;;;;;20.45;11.38;;;21.20;99.90;;;;;;3521402;40;20187;-80
2021/06/16 05:31:17;;;;;;;21.52;12.18;;;21.40;99.90;;;;;;3511855;40;20292;-82
2021/06/16 05:33:49;;;;;;;21.23;12.30;;;21.60;99.90;;;;;;3506417;40;20087;-79
2021/06/16 05:36:19;;;;;;;20.75;12.48;;;21.80;99.90;;;;;;3513530;40;20068;-79
2021/06/16 05:38:47;;;;;;;16.60;12.03;;;21.80;99.90;;;;;;3504167;40;20326;-79
2021/06/16 05:41:15;;;;;;;21.52;12.75;;;21.80;99.90;;;;;;3513286;40;20071;-77
2021/06/16 05:43:43;;;;;;;23.08;13.05;;;21.60;99.90;;;;;;3510685;40;20071;-78
2021/06/16 05:46:12;;;;;;;21.08;12.98;;;21.60;99.90;;;;;;3521264;40;20086;-79
2021/06/16 05:48:40;;;;;;;20.95;12.95;;;21.60;99.90;;;;;;3530427;40;20083;-79
2021/06/16 05:51:08;;;;;;;18.40;12.27;;;21.60;99.90;;;;;;3521414;40;20091;-80
2021/06/16 05:53:35;;;;;;;25.48;13.27;;;21.60;99.90;;;;;;3529613;40;20068;-80
2021/06/16 05:56:04;;;;;;;18.80;11.80;;;21.70;99.90;;;;;;3522285;40;20411;-81
2021/06/16 05:58:35;;;;;;;20.52;12.25;;;21.80;99.90;;;;;;3520718;40;20083;-79
2021/06/16 06:01:03;;;;;;;19.40;12.68;;;21.80;99.90;;;;;;3504810;40;20071;-80
2021/06/16 06:03:32;;;;;;;18.02;13.13;;;21.70;99.90;;;;;;3529916;40;20325;-78
2021/06/16 06:06:03;;;;;;;23.95;13.35;;;21.70;99.90;;;;;;3514053;40;20071;-79
2021/06/16 06:08:31;;;;;;;16.45;12.10;;;21.60;99.90;;;;;;3513345;40;20075;-80
2021/06/16 06:10:59;;;;;;;18.60;12.50;;;21.50;99.90;;;;;;3515778;40;20090;-79
2021/06/16 06:13:26;;;;;;;19.73;12.07;;;21.50;99.90;;;;;;3532879;40;20067;-78
2021/06/16 06:15:57;;;;;;;21.15;12.45;;;21.60;99.90;;;;;;3514819;40;20071;-81
2021/06/16 06:18:24;;;;;;;17.57;12.03;;;21.70;99.90;;;;;;3521399;40;20068;-79
2021/06/16 06:20:54;;;;;;;20.33;12.77;;;21.80;99.90;;;;;;3521878;40;20351;-80
2021/06/16 06:23:26;;;;;;;26.77;18.10;;;21.90;99.90;;;;;;3512722;40;20087;-79
2021/06/16 06:25:53;;;;;;;19.90;12.25;;;21.80;99.90;;;;;;3507114;40;20056;-79
2021/06/16 06:28:26;;;;;;;20.90;12.27;;;21.80;99.90;;;;;;3522483;40;20087;-79
2021/06/16 06:30:55;;;;;;;21.25;13.95;;;21.60;99.90;;;;;;3514430;40;20071;-79
2021/06/16 06:33:26;;;;;;;22.25;14.13;;;21.60;99.90;;;;;;3522389;40;20328;-77
2021/06/16 06:35:55;;;;;;;17.17;12.77;;;21.70;99.90;;;;;;3512458;40;20087;-78
2021/06/16 06:38:26;;;;;;;18.00;12.45;;;21.90;99.90;;;;;;3526676;40;20078;-79
2021/06/16 06:40:55;;;;;;;20.23;11.80;;;22.10;99.90;;;;;;3527554;40;20094;-80
2021/06/16 06:43:26;;;;;;;20.77;13.25;;;22.20;99.90;;;;;;3518124;40;20063;-78
2021/06/16 06:45:54;;;;;;;20.17;12.13;;;22.30;99.90;;;;;;3517316;40;20063;-79
2021/06/16 06:48:22;;;;;;;22.50;11.65;;;22.50;99.90;;;;;;3521322;40;20091;-81
2021/06/16 06:50:51;;;;;;;19.17;13.23;;;22.70;99.90;;;;;;3525155;40;20080;-80
2021/06/16 06:53:21;;;;;;;17.75;12.52;;;23.00;99.90;;;;;;3526229;40;20098;-79
2021/06/16 06:55:49;;;;;;;17.95;11.70;;;23.10;99.90;;;;;;3521129;40;20083;-79
2021/06/16 06:58:17;;;;;;;21.20;12.32;;;23.20;99.90;;;;;;3521291;40;20082;-81
2021/06/16 07:00:45;;;;;;;15.88;11.65;;;23.20;99.90;;;;;;3521374;40;20092;-80
2021/06/16 07:03:13;;;;;;;15.40;12.13;;;23.10;99.90;;;;;;3521721;40;20088;-79
2021/06/16 07:05:40;;;;;;;18.83;12.38;;;23.00;99.90;;;;;;3520811;40;20322;-79
2021/06/16 07:08:11;;;;;;;16.77;12.13;;;23.00;99.90;;;;;;3521340;40;20072;-79
2021/06/16 07:10:43;;;;;;;19.05;12.60;;;23.00;99.90;;;;;;3513528;40;20087;-82
2021/06/16 07:13:11;;;;;;;19.75;12.55;;;23.00;99.90;;;;;;3513339;40;20087;-79
2021/06/16 07:15:41;;;;;;;17.52;12.02;;;23.00;99.90;;;;;;3521899;40;20039;-80
2021/06/16 07:18:12;;;;;;;22.48;11.88;;;23.00;99.90;;;;;;3522708;40;20092;-81
2021/06/16 07:20:42;;;;;;;15.07;11.50;;;23.10;99.90;;;;;;3511722;40;20076;-79
2021/06/16 07:23:10;;;;;;;20.40;12.43;;;23.10;99.90;;;;;;3511308;40;20296;-82
2021/06/16 07:25:38;;;;;;;22.95;11.73;;;23.30;99.90;;;;;;3518267;40;20087;-80
2021/06/16 07:28:10;;;;;;;18.48;11.15;;;23.50;99.90;;;;;;3520476;40;20295;-81
2021/06/16 07:30:40;;;;;;;22.23;12.80;;;23.60;99.90;;;;;;3521366;40;20083;-80
2021/06/16 07:33:12;;;;;;;18.42;11.07;;;23.70;99.90;;;;;;3522481;40;20388;-80
2021/06/16 07:35:40;;;;;;;15.30;10.50;;;23.80;99.90;;;;;;3512074;40;20491;-80
2021/06/16 07:38:08;;;;;;;19.05;10.57;;;23.80;99.90;;;;;;3512508;40;20343;-80
2021/06/16 07:40:36;;;;;;;17.58;11.68;;;23.90;99.90;;;;;;3519843;40;20075;-80
2021/06/16 07:43:04;;;;;;;22.33;10.93;;;24.00;99.90;;;;;;3509604;40;20134;-80
2021/06/16 07:45:36;;;;;;;18.08;10.80;;;24.10;99.90;;;;;;3520650;40;20071;-79
2021/06/16 07:48:04;;;;;;;23.95;12.35;;;24.20;99.90;;;;;;3520584;40;20073;-80
2021/06/16 07:50:36;;;;;;;19.27;11.38;;;24.30;99.90;;;;;;3522156;40;20123;-79
2021/06/16 07:53:05;;;;;;;19.33;10.45;;;24.30;99.90;;;;;;3521967;40;20067;-81
2021/06/16 07:55:33;;;;;;;22.58;11.02;;;24.30;99.90;;;;;;3513286;40;20088;-80
2021/06/16 07:58:02;;;;;;;24.17;11.50;;;24.30;99.90;;;;;;3521207;40;20068;-86
2021/06/16 08:00:32;;;;;;;15.85;10.07;;;24.30;99.90;;;;;;3513503;40;20310;-81
2021/06/16 08:03:01;;;;;;;15.13;9.43;;;24.30;99.90;;;;;;3520263;40;20306;-80
2021/06/16 08:05:29;;;;;;;14.10;9.85;;;24.30;99.90;;;;;;3520480;40;20080;-83
2021/06/16 08:08:00;;;;;;;14.93;9.48;;;24.40;99.90;;;;;;3511014;40;20091;-80
2021/06/16 08:10:31;;;;;;;20.38;10.35;;;24.40;99.90;;;;;;3512381;40;20067;-81
2021/06/16 08:13:04;;;;;;;14.40;9.48;;;24.50;99.90;;;;;;3512460;40;20408;-80
2021/06/16 08:15:33;;;;;;;12.43;9.07;;;24.40;99.90;;;;;;3520243;40;20087;-81
2021/06/16 08:18:02;;;;;;;13.70;9.23;;;24.40;99.90;;;;;;3522690;40;20138;-82
2021/06/16 08:20:30;;;;;;;23.40;10.07;;;24.60;99.90;;;;;;3522364;40;20096;-81
2021/06/16 08:22:59;;;;;;;19.52;9.60;;;24.70;99.90;;;;;;3520597;40;20079;-80
2021/06/16 08:25:27;;;;;;;18.85;9.73;;;24.80;99.90;;;;;;3520911;40;20079;-80
2021/06/16 08:27:55;;;;;;;20.80;9.15;;;24.90;99.90;;;;;;3513577;40;20079;-82
2021/06/16 08:30:25;;;;;;;16.20;7.63;;;24.90;99.90;;;;;;3521066;40;20123;-80
2021/06/16 08:32:55;;;;;;;17.15;8.00;;;25.10;99.90;;;;;;3521803;40;20110;-80
2021/06/16 08:35:26;;;;;;;17.80;8.82;;;25.10;99.90;;;;;;3514866;40;20280;-82
2021/06/16 08:37:55;;;;;;;16.02;8.65;;;25.20;99.90;;;;;;3512251;40;20429;-81
2021/06/16 08:40:23;;;;;;;13.70;8.38;;;25.30;99.90;;;;;;3521714;40;20072;-80
2021/06/16 08:42:52;;;;;;;16.77;9.27;;;25.30;99.90;;;;;;3513798;40;20072;-81
2021/06/16 08:45:22;;;;;;;15.82;8.95;;;25.40;99.90;;;;;;3525553;40;20074;-80
2021/06/16 08:47:51;;;;;;;13.63;8.32;;;25.50;99.90;;;;;;3527216;40;20092;-81
2021/06/16 08:50:20;;;;;;;13.93;7.85;;;25.70;99.50;;;;;;3522053;40;20091;-82
2021/06/16 08:52:49;;;;;;;;;;;25.70;99.60;;;;;;3526503;40;20079;-82
2021/06/16 08:55:19;;;;;;;13.57;7.72;;;25.70;99.30;;;;;;3522999;40;19974;-81
2021/06/16 08:57:47;;;;;;;13.75;8.25;;;25.80;98.90;;;;;;3524072;40;20391;-81
2021/06/16 09:00:17;;;;;;;14.98;7.97;;;25.80;98.70;;;;;;3512609;40;20058;-80
2021/06/16 09:02:48;;;;;;;13.80;8.02;;;25.80;98.90;;;;;;3515809;40;20326;-80
2021/06/16 09:05:16;;;;;;;14.35;8.55;;;25.70;99.00;;;;;;3520490;40;20068;-81
2021/06/16 09:07:46;;;;;;;13.52;8.15;;;25.80;98.80;;;;;;3519822;40;20079;-80
2021/06/16 09:10:18;;;;;;;14.32;8.32;;;25.90;98.50;;;;;;3525238;40;20067;-81
2021/06/16 09:12:52;;;;;;;16.98;8.00;;;25.90;98.20;;;;;;3523101;40;20059;-81
2021/06/16 09:15:24;;;;;;;;;;;25.80;98.20;;;;;;3523624;40;20352;-80
2021/06/16 09:18:06;;;;;;;12.18;7.03;;;25.90;97.90;;;;;;3516072;40;19974;-80
2021/06/16 09:20:37;;;;;;;12.10;7.88;;;26.10;97.80;;;;;;3526764;40;20076;-81
2021/06/16 09:23:12;;;;;;;14.82;7.90;;;26.20;97.80;;;;;;3528290;40;20088;-81
2021/06/16 09:25:42;;;;;;;11.10;7.63;;;26.20;97.80;;;;;;3527462;40;20065;-82
2021/06/16 09:28:12;;;;;;;14.38;7.68;;;26.30;97.60;;;;;;3511276;40;20088;-81
2021/06/16 09:30:45;;;;;;;13.60;8.35;;;26.40;97.30;;;;;;3514876;40;20163;-80
2021/06/16 09:33:15;;;;;;;12.95;7.47;;;26.40;97.20;;;;;;3521866;40;20079;-81
2021/06/16 09:35:45;;;;;;;13.07;7.75;;;26.40;97.00;;;;;;3521569;40;20088;-81
2021/06/16 09:38:21;;;;;;;15.88;8.23;;;26.50;96.80;;;;;;3526317;40;20075;-82
2021/06/16 09:40:50;;;;;;;11.15;7.18;;;26.60;96.20;;;;;;3513227;40;20075;-81
2021/06/16 09:43:21;;;;;;;12.20;7.55;;;26.50;96.40;;;;;;3521293;40;20095;-81
2021/06/16 09:45:54;;;;;;;13.40;7.13;;;26.70;96.40;;;;;;3514739;40;20076;-81
2021/06/16 09:48:31;;;;;;;10.05;7.15;;;26.90;96.00;;;;;;3520876;40;20075;-82
2021/06/16 09:51:15;;;;;;;16.20;6.57;;;27.00;95.70;;;;;;3523764;40;20076;-80
2021/06/16 09:54:11;;;;;;;11.43;7.05;;;27.20;95.10;;;;;;3529925;40;20072;-82
2021/06/16 09:56:44;;;;;;;;;;;27.20;94.70;;;;;;3534016;40;20091;-79
2021/06/16 09:59:13;;;;;;;14.10;7.35;;;27.30;94.30;;;;;;3525807;40;19987;-80
2021/06/16 10:01:53;;;;;;;11.85;7.43;;;27.30;94.00;;;;;;3524850;40;20075;-80
2021/06/16 10:04:43;;;;;;;17.60;10.93;;;27.40;93.90;;;;;;3522461;40;20567;-80
2021/06/16 10:07:17;;;;;;;10.68;7.00;;;27.50;93.60;;;;;;3522275;40;20060;-83
2021/06/16 10:09:57;;;;;;;12.70;6.50;;;27.50;93.20;;;;;;3529054;40;20123;-82
2021/06/16 10:12:29;;;;;;;9.63;6.57;;;27.70;92.80;;;;;;3522342;40;20317;-80
2021/06/16 10:14:59;;;;;;;12.90;6.97;;;28.00;92.20;;;;;;3519319;40;20304;-84
2021/06/16 10:17:29;;;;;;;10.07;6.38;;;28.60;91.30;;;;;;3514472;40;20087;-80
2021/06/16 10:19:57;;;;;;;13.32;6.88;;;29.10;90.40;;;;;;3522003;40;20071;-81
2021/06/16 10:22:25;;;;;;;9.52;5.75;;;29.80;87.60;;;;;;3523754;40;20079;-80
2021/06/16 10:24:56;;;;;;;13.73;6.22;;;30.40;84.60;;;;;;3512434;40;20068;-81
2021/06/16 10:27:32;;;;;;;8.18;5.43;;;31.00;80.90;;;;;;3514748;40;20075;-81
2021/06/16 10:30:04;;;;;;;8.35;5.30;;;31.40;77.20;;;;;;3518525;40;20111;-81
2021/06/16 10:32:44;;;;;;;9.10;5.72;;;32.00;75.60;;;;;;3522305;40;20297;-81
2021/06/16 10:35:13;;;;;;;8.10;5.30;;;32.40;72.90;;;;;;3522071;40;20087;-82
2021/06/16 10:37:42;;;;;;;8.25;5.40;;;32.60;69.60;;;;;;3524086;40;20419;-82
2021/06/16 10:40:44;;;;;;;10.65;5.25;;;33.10;66.10;;;;;;3528010;40;20068;-81
2021/06/16 10:43:31;;;;;;;9.77;5.80;;;33.50;64.90;;;;;;3517754;40;20332;-81
2021/06/16 10:46:07;;;;;;;9.60;4.72;;;33.80;64.20;;;;;;3527972;40;20296;-81
2021/06/16 10:49:01;;;;;;;9.00;4.95;;;34.10;61.20;;;;;;3526721;40;20336;-83
2021/06/16 10:51:34;;;;;;;9.95;5.10;;;34.70;60.70;;;;;;3524915;40;20060;-84
2021/06/16 10:54:20;;;;;;;8.43;4.90;;;35.40;59.40;;;;;;3521082;40;20431;-83
2021/06/16 10:56:55;;;;;;;9.93;4.68;;;36.00;56.30;;;;;;3519314;40;20069;-83
2021/06/16 11:00:02;;;;;;;9.50;4.93;;;36.60;54.50;;;;;;3521715;40;20067;-83
2021/06/16 11:03:01;;;;;;;7.95;4.32;;;36.90;53.00;;;;;;3519620;40;20095;-84
2021/06/16 11:05:49;;;;;;;6.45;4.47;;;37.30;51.70;;;;;;3504351;40;20071;-82
2021/06/16 11:08:50;;;;;;;10.07;4.25;;;37.50;51.60;;;;;;3512586;40;20096;-83
2021/06/16 11:11:18;;;;;;;10.52;5.13;;;38.00;50.80;;;;;;3517218;40;20150;-82
2021/06/16 11:13:51;;;;;;;8.13;4.50;;;38.70;49.10;;;;;;3521592;40;20087;-82
2021/06/16 11:16:53;;;;;;;7.93;4.13;;;39.00;47.40;;;;;;3519630;40;20099;-82
2021/06/16 11:19:40;;;;;;;8.65;3.88;;;39.20;47.10;;;;;;3512281;40;20412;-83
2021/06/16 11:22:48;;;;;;;7.13;4.07;;;39.50;46.70;;;;;;3521540;40;20079;-82
2021/06/16 11:25:41;;;;;;;7.88;4.60;;;40.10;45.40;;;;;;3516225;40;20079;-81
2021/06/16 11:28:15;;;;;;;6.80;4.00;;;39.90;45.00;;;;;;3515572;40;20079;-84
2021/06/16 11:31:06;;;;;;;6.78;3.83;;;40.30;44.50;;;;;;3520648;40;20083;-82
2021/06/16 11:33:48;;;;;;;8.13;4.40;;;40.30;44.50;;;;;;3522631;40;20345;-83
2021/06/16 11:36:38;;;;;;;6.53;3.78;;;40.40;44.30;;;;;;3528638;40;20083;-80
2021/06/16 11:39:10;;;;;;;10.20;4.60;;;40.40;43.90;;;;;;3525420;40;20067;-81
2021/06/16 11:41:46;;;;;;;6.88;3.60;;;40.90;43.90;;;;;;3527038;40;20084;-84
2021/06/16 11:44:14;;;;;;;5.30;4.07;;;41.70;43.00;;;;;;3520750;40;20095;-81
2021/06/16 11:46:44;;;;;;;6.18;3.70;;;42.30;42.20;;;;;;3523164;40;20071;-81
2021/06/16 11:49:13;;;;;;;6.65;3.50;;;42.60;40.90;;;;;;3521187;40;20076;-82
2021/06/16 11:51:49;;;;;;;8.02;4.00;;;43.00;40.90;;;;;;3519506;40;20096;-81
2021/06/16 11:54:23;;;;;;;12.05;4.40;;;43.50;40.00;;;;;;3526484;40;20056;-80
2021/06/16 11:56:54;;;;;;;7.43;3.90;;;43.70;39.00;;;;;;3528164;40;20099;-81
2021/06/16 11:59:34;;;;;;;5.07;3.30;;;43.90;38.50;;;;;;3520825;40;20067;-81
2021/06/16 12:02:08;;;;;;;7.70;4.78;;;44.10;38.70;;;;;;3524089;40;20087;-82
2021/06/16 12:04:51;;;;;;;7.93;4.00;;;43.80;39.20;;;;;;3510121;40;20075;-81
2021/06/16 12:07:24;;;;;;;6.22;3.67;;;44.10;38.60;;;;;;3520161;40;20064;-81
2021/06/16 12:09:55;;;;;;;8.15;3.58;;;44.50;38.40;;;;;;3527990;40;20098;-82
2021/06/16 12:12:25;;;;;;;5.75;3.90;;;44.50;37.30;;;;;;3531392;40;20032;-81
2021/06/16 12:15:07;;;;;;;6.78;3.63;;;44.80;37.20;;;;;;3528867;40;20080;-82
2021/06/16 12:17:53;;;;;;;7.88;4.10;;;44.50;37.10;;;;;;3529935;40;20051;-80
2021/06/16 12:20:24;;;;;;;5.35;3.35;;;44.50;37.20;;;;;;3527652;40;20080;-82
2021/06/16 12:22:53;;;;;;;6.15;4.25;;;44.70;37.00;;;;;;3517482;40;20087;-81
2021/06/16 12:25:25;;;;;;;7.25;3.90;;;44.50;36.80;;;;;;3534646;40;20064;-82
2021/06/16 12:27:55;;;;;;;8.43;4.05;;;44.20;37.10;;;;;;3528778;40;20090;-81
2021/06/16 12:30:25;;;;;;;8.60;3.65;;;44.50;37.10;;;;;;3521164;40;20067;-81
2021/06/16 12:33:13;;;;;;;11.15;4.60;;;44.90;36.80;;;;;;3522218;40;20075;-81
2021/06/16 12:35:53;;;;;;;6.03;3.22;;;45.60;35.90;;;;;;3521722;40;20358;-81
2021/06/16 12:38:36;;;;;;;8.20;4.65;;;45.30;36.30;;;;;;3509462;40;20072;-82
2021/06/16 12:41:26;;;;;;;6.50;3.35;;;45.90;36.10;;;;;;3528144;40;20281;-80
2021/06/16 12:44:10;;;;;;;9.33;4.00;;;46.10;35.70;;;;;;3523039;40;20040;-81
2021/06/16 12:46:56;;;;;;;10.73;3.58;;;45.90;36.00;;;;;;3518253;40;20091;-84
2021/06/16 12:49:27;;;;;;;8.80;3.67;;;46.30;35.10;;;;;;3520465;40;20424;-81
2021/06/16 12:51:56;;;;;;;7.50;3.60;;;46.40;34.80;;;;;;3520483;40;20079;-81
2021/06/16 12:54:29;;;;;;;6.50;3.67;;;46.30;34.90;;;;;;3521371;40;20084;-82
2021/06/16 12:57:09;;;;;;;6.20;3.63;;;46.30;34.40;;;;;;3520602;40;20396;-81
2021/06/16 12:59:40;;;;;;;6.07;3.58;;;46.10;34.20;;;;;;3520074;40;20072;-81
2021/06/16 13:02:10;;;;;;;10.23;3.63;;;46.60;34.30;;;;;;3498745;40;20080;-81